Time;durP1;ratioP1;P1;durP2;ratioP2;P2;SDS_P1;SDS_P2;PMS_P1;PMS_P2;Temp;Humidity;BMP_temperature;BMP_pressure;BME280_temperature;BME280_humidity;BME280_pressure;Samples;Min_cycle;Max_cycle;Signal;HPM_P1;HPM_P2
2022/01/01 00:01:16;;;;;;;215.60;94.97;;;;;;;9.37;100.00;102347.19;5153778;27;20996;-73
2022/01/01 00:04:02;;;;;;;217.38;92.32;;;;;;;9.37;100.00;102344.53;5118047;27;20050;-72
2022/01/01 00:07:06;;;;;;;184.63;80.45;;;;;;;9.43;100.00;102339.16;5126486;27;20038;-73
2022/01/01 00:09:56;;;;;;;208.90;87.50;;;;;;;9.42;100.00;102329.44;5151245;27;20403;-73
2022/01/01 00:16:43;;;;;;;196.43;85.32;;;;;;;9.42;100.00;102308.09;5152614;27;20053;-74
2022/01/01 00:19:22;;;;;;;209.35;90.63;;;;;;;9.48;100.00;102308.06;5153662;27;20046;-74
2022/01/01 00:22:21;;;;;;;199.95;86.22;;;;;;;9.43;100.00;102307.19;5152823;27;20041;-74
2022/01/01 00:25:07;;;;;;;194.43;79.93;;;;;;;9.45;100.00;102302.75;5151981;27;20083;-75
2022/01/01 00:28:03;;;;;;;166.95;69.55;;;;;;;9.46;100.00;102312.53;5139705;27;20154;-74
2022/01/01 00:31:19;;;;;;;142.70;60.22;;;;;;;9.52;100.00;102312.50;5153837;27;20157;-74
2022/01/01 00:33:59;;;;;;;150.80;62.42;;;;;;;9.46;100.00;102320.50;5149198;27;20070;-73
2022/01/01 00:36:48;;;;;;;154.10;59.90;;;;;;;9.43;100.00;102332.09;5152723;27;20125;-74
2022/01/01 00:39:31;;;;;;;150.05;63.47;;;;;;;9.42;100.00;102332.97;5137376;27;20153;-74
2022/01/01 00:42:18;;;;;;;158.15;68.18;;;;;;;9.38;100.00;102327.66;5151060;27;20125;-74
2022/01/01 00:44:58;;;;;;;183.38;70.97;;;;;;;9.30;100.00;102325.03;5154969;27;20552;-74
2022/01/01 00:48:02;;;;;;;193.63;85.07;;;;;;;9.23;100.00;102318.81;5147633;27;20464;-74
2022/01/01 00:50:57;;;;;;;205.65;84.18;;;;;;;9.21;100.00;102312.63;5158376;27;20365;-74
2022/01/01 00:53:50;;;;;;;167.55;72.15;;;;;;;9.20;100.00;102310.84;5136447;27;20046;-74
2022/01/01 00:56:40;;;;;;;145.57;54.53;;;;;;;9.19;100.00;102313.50;5152631;27;20050;-74
2022/01/01 00:59:25;;;;;;;114.70;45.85;;;;;;;9.25;100.00;102326.81;5142297;27;20038;-76
2022/01/01 01:01:53;;;;;;;101.82;38.08;;;;;;;9.27;100.00;102338.34;5155936;27;20141;-76
2022/01/01 01:04:21;;;;;;;96.22;38.60;;;;;;;9.33;100.00;102339.22;5158312;27;20127;-76
2022/01/01 01:06:51;;;;;;;83.88;31.83;;;;;;;9.48;100.00;102340.94;5158852;27;20047;-76
2022/01/01 01:09:19;;;;;;;82.07;29.27;;;;;;;9.51;100.00;102346.25;5154766;27;20199;-76
2022/01/01 01:11:51;;;;;;;81.22;30.90;;;;;;;9.64;100.00;102352.44;5153343;27;20084;-76
2022/01/01 01:14:22;;;;;;;66.18;26.77;;;;;;;9.80;100.00;102347.03;5154159;27;20046;-77
2022/01/01 01:16:53;;;;;;;79.93;30.40;;;;;;;9.85;100.00;102355.88;5160495;27;20146;-77
2022/01/01 01:19:21;;;;;;;84.35;28.50;;;;;;;10.03;100.00;102346.91;5155653;27;20054;-77
2022/01/01 01:21:50;;;;;;;69.85;24.65;;;;;;;10.03;100.00;102357.59;5157432;27;20054;-76
2022/01/01 01:24:23;;;;;;;65.60;24.33;;;;;;;10.09;100.00;102346.84;5153116;27;20185;-77
2022/01/01 01:26:59;;;;;;;64.07;23.27;;;;;;;10.09;100.00;102355.72;5159693;27;20046;-76
2022/01/01 01:29:29;;;;;;;55.47;22.33;;;;;;;10.12;100.00;102359.31;5157463;27;20107;-77
2022/01/01 01:31:57;;;;;;;51.13;19.80;;;;;;;10.15;100.00;102353.94;5155414;27;20165;-77
2022/01/01 01:34:25;;;;;;;44.33;17.15;;;;;;;10.17;100.00;102350.38;5158001;27;20050;-77
2022/01/01 01:36:53;;;;;;;41.75;15.98;;;;;;;10.18;100.00;102360.16;5156584;27;20051;-76
2022/01/01 01:39:22;;;;;;;51.10;16.73;;;;;;;10.19;100.00;102361.91;5155868;27;20103;-76
2022/01/01 01:41:52;;;;;;;45.17;17.40;;;;;;;10.19;100.00;102345.91;5156493;27;20061;-77
2022/01/01 01:44:23;;;;;;;45.85;16.45;;;;;;;10.20;100.00;102347.69;5156020;27;20092;-76
2022/01/01 01:46:52;;;;;;;40.20;16.02;;;;;;;10.20;100.00;102346.78;5153056;27;20089;-76
2022/01/01 01:49:26;;;;;;;37.35;14.93;;;;;;;10.26;100.00;102354.75;5157578;27;20050;-74
2022/01/01 02:07:14;;;;;;;42.58;13.32;;;;;;;10.25;100.00;102337.88;5156105;27;20411;-74
2022/01/01 02:09:46;;;;;;;34.47;15.30;;;;;;;10.29;100.00;102334.28;5159760;27;20050;-74
2022/01/01 02:12:55;;;;;;;50.50;18.45;;;;;;;10.32;100.00;102330.75;5147599;27;20059;-74
2022/01/01 02:15:39;;;;;;;;;;;;;;;10.31;100.00;102328.94;5139265;27;20137;-77
2022/01/01 02:18:07;;;;;;;53.33;18.77;;;;;;;10.35;100.00;102321.81;5153244;27;19934;-76
2022/01/01 02:23:26;;;;;;;45.65;18.20;;;;;;;10.41;100.00;102311.97;5153375;27;20057;-73
2022/01/01 02:26:23;;;;;;;48.47;19.88;;;;;;;10.45;100.00;102312.84;5156505;27;20057;-74
2022/01/01 02:31:39;;;;;;;50.08;24.20;;;;;;;10.62;100.00;102320.72;5141436;27;20049;-76
2022/01/01 02:34:10;;;;;;;49.15;21.23;;;;;;;10.67;100.00;102323.34;5155816;27;20164;-76
2022/01/01 02:36:41;;;;;;;52.15;20.38;;;;;;;10.69;100.00;102324.22;5153441;27;20072;-76
2022/01/01 02:39:14;;;;;;;54.65;21.52;;;;;;;10.71;100.00;102331.31;5155921;27;20129;-77
2022/01/01 02:41:44;;;;;;;48.67;20.92;;;;;;;10.72;100.00;102330.41;5154602;27;20247;-77
2022/01/01 02:44:13;;;;;;;49.80;21.27;;;;;;;10.81;100.00;102329.44;5154162;27;20042;-76
2022/01/01 02:46:42;;;;;;;55.47;21.65;;;;;;;10.79;100.00;102326.78;5156717;27;20052;-77
2022/01/01 02:49:10;;;;;;;43.72;19.63;;;;;;;10.79;100.00;102332.13;5154531;27;20118;-77
2022/01/01 02:51:40;;;;;;;44.92;20.15;;;;;;;10.80;100.00;102333.91;5154888;27;20099;-77
2022/01/01 02:54:07;;;;;;;46.45;19.88;;;;;;;10.77;100.00;102333.91;5154886;27;20054;-76
2022/01/01 02:56:35;;;;;;;41.75;20.23;;;;;;;10.79;100.00;102329.44;5153798;27;20086;-76
2022/01/01 02:59:03;;;;;;;43.33;20.98;;;;;;;10.88;100.00;102340.94;5151268;27;20193;-76
2022/01/01 03:04:34;;;;;;;42.55;18.90;;;;;;;10.91;100.00;102330.25;5152229;27;20073;-73
2022/01/01 03:07:31;;;;;;;50.85;17.75;;;;;;;10.93;100.00;102336.44;5140600;27;20138;-74
2022/01/01 03:10:06;;;;;;;41.28;16.88;;;;;;;10.94;100.00;102335.56;5156692;27;20413;-74
2022/01/01 03:12:49;;;;;;;32.15;14.57;;;;;;;10.93;100.00;102329.34;5138916;27;20055;-73
2022/01/01 03:15:30;;;;;;;40.92;16.38;;;;;;;10.99;100.00;102329.25;5153445;27;20226;-74
2022/01/01 03:18:15;;;;;;;36.38;15.77;;;;;;;11.00;100.00;102322.16;5156314;27;20126;-74
2022/01/01 03:20:59;;;;;;;36.60;15.60;;;;;;;10.97;100.00;102325.72;5119565;27;20050;-73
2022/01/01 03:23:45;;;;;;;33.05;14.95;;;;;;;10.97;100.00;102304.34;5134211;27;20042;-74
2022/01/01 03:26:28;;;;;;;37.47;16.50;;;;;;;10.88;100.00;102296.47;5155214;27;20182;-73
2022/01/01 03:29:03;;;;;;;35.77;16.23;;;;;;;10.84;100.00;102303.63;5154672;27;20543;-74
2022/01/01 03:31:57;;;;;;;46.92;18.38;;;;;;;10.77;100.00;102307.22;5085981;27;20365;-74
2022/01/01 03:34:40;;;;;;;43.08;17.95;;;;;;;10.69;100.00;102302.84;5153345;27;20157;-74
2022/01/01 03:37:13;;;;;;;31.13;16.77;;;;;;;10.64;100.00;102301.13;5101778;27;21143;-73
2022/01/01 03:39:58;;;;;;;46.40;18.65;;;;;;;10.60;100.00;102319.84;5153313;27;20531;-73
2022/01/01 03:42:49;;;;;;;43.05;17.48;;;;;;;10.52;100.00;102316.34;5133825;27;20060;-72
2022/01/01 03:45:21;;;;;;;44.58;16.63;;;;;;;10.53;100.00;102305.66;5136213;27;20050;-73
2022/01/01 03:47:58;;;;;;;49.42;18.58;;;;;;;10.49;100.00;102305.69;5154004;27;20058;-73
2022/01/01 03:50:32;;;;;;;43.30;17.75;;;;;;;10.40;100.00;102310.22;5128256;27;20762;-73
2022/01/01 03:53:11;;;;;;;45.75;18.50;;;;;;;10.33;100.00;102315.63;5151394;27;20071;-72
2022/01/01 03:56:28;;;;;;;38.28;16.73;;;;;;;10.30;100.00;102313.84;5117816;27;20465;-72
2022/01/01 03:59:17;;;;;;;44.97;17.88;;;;;;;10.36;100.00;102313.81;5151817;27;20380;-72
2022/01/01 04:02:42;;;;;;;40.35;17.15;;;;;;;10.30;100.00;102311.16;5137135;27;20057;-72
2022/01/01 04:05:19;;;;;;;35.75;17.23;;;;;;;10.35;100.00;102316.47;5151886;27;20050;-73
2022/01/01 04:08:02;;;;;;;38.00;17.17;;;;;;;10.34;100.00;102328.06;5155786;27;20050;-73
2022/01/01 04:10:34;;;;;;;40.88;16.23;;;;;;;10.37;100.00;102320.94;5134284;27;20090;-73
2022/01/01 04:13:11;;;;;;;39.05;17.70;;;;;;;10.36;100.00;102326.28;5148428;27;20353;-73
2022/01/01 04:15:54;;;;;;;40.45;17.45;;;;;;;10.34;100.00;102325.41;5135742;27;20394;-73
2022/01/01 04:18:37;;;;;;;38.97;16.75;;;;;;;10.41;100.00;102317.31;5154279;27;20092;-73
2022/01/01 04:21:15;;;;;;;33.42;15.43;;;;;;;10.38;100.00;102314.66;5135178;27;20212;-73
2022/01/01 04:23:53;;;;;;;38.33;17.05;;;;;;;10.43;100.00;102314.66;5155314;27;20474;-73
2022/01/01 04:26:35;;;;;;;34.75;14.73;;;;;;;10.43;100.00;102315.53;5154276;27;20050;-73
2022/01/01 04:29:39;;;;;;;32.05;15.80;;;;;;;10.43;100.00;102318.19;5154873;27;20057;-73
2022/01/01 04:32:23;;;;;;;38.40;15.50;;;;;;;10.40;100.00;102326.25;5154829;27;20064;-73
2022/01/01 04:34:53;;;;;;;35.80;15.38;;;;;;;10.36;100.00;102335.16;5138783;27;20137;-73
2022/01/01 04:40:50;;;;;;;28.92;13.20;;;;;;;10.49;100.00;102330.63;5158426;27;20042;-73
2022/01/01 04:43:46;;;;;;;33.17;12.93;;;;;;;10.46;100.00;102339.53;5155780;27;20489;-73
2022/01/01 04:46:38;;;;;;;35.25;13.65;;;;;;;10.44;100.00;102335.09;5160066;27;20057;-72
2022/01/01 04:49:35;;;;;;;28.85;12.25;;;;;;;10.50;100.00;102339.50;5156614;27;20046;-72
2022/01/01 04:52:17;;;;;;;30.67;12.50;;;;;;;10.52;100.00;102346.63;5159598;27;20123;-73
2022/01/01 04:54:59;;;;;;;28.35;10.93;;;;;;;10.50;100.00;102339.50;5139868;27;20058;-73
2022/01/01 04:57:45;;;;;;;28.80;11.00;;;;;;;10.49;100.00;102343.06;5154727;27;20055;-73
2022/01/01 05:00:21;;;;;;;24.90;10.88;;;;;;;10.45;100.00;102344.88;5137899;27;20509;-73
2022/01/01 05:03:27;;;;;;;32.92;12.98;;;;;;;10.46;100.00;102330.63;5138027;27;20049;-73
2022/01/01 05:06:16;;;;;;;26.23;11.68;;;;;;;10.50;100.00;102327.03;5158306;27;20149;-73
2022/01/01 05:08:49;;;;;;;24.63;11.73;;;;;;;10.48;100.00;102323.50;5139563;27;20062;-73
2022/01/01 05:11:22;;;;;;;24.77;10.82;;;;;;;10.48;100.00;102325.28;5156749;27;20046;-73
2022/01/01 05:14:14;;;;;;;27.10;10.93;;;;;;;10.51;100.00;102327.94;5156149;27;20201;-73
2022/01/01 05:16:47;;;;;;;28.33;11.27;;;;;;;10.55;100.00;102324.34;5139196;27;20580;-73
2022/01/01 05:19:19;;;;;;;25.10;11.23;;;;;;;10.57;100.00;102317.19;5144637;27;20114;-73
2022/01/01 05:22:30;;;;;;;23.48;10.18;;;;;;;10.53;100.00;102315.47;5138405;27;20046;-73
2022/01/01 05:25:00;;;;;;;23.65;9.68;;;;;;;10.55;100.00;102325.22;5156404;27;20175;-72
2022/01/01 05:27:31;;;;;;;23.90;10.90;;;;;;;10.49;100.00;102317.28;5156800;27;20165;-73
2022/01/01 05:30:22;;;;;;;24.75;10.70;;;;;;;10.45;100.00;102312.84;5134721;27;20042;-73
2022/01/01 05:33:00;;;;;;;28.70;10.93;;;;;;;10.43;100.00;102310.19;5158105;27;20147;-76
2022/01/01 05:35:28;;;;;;;29.85;10.70;;;;;;;10.50;100.00;102303.00;5155724;27;20092;-75
2022/01/01 05:37:57;;;;;;;24.05;9.82;;;;;;;10.46;100.00;102288.81;5158921;27;20057;-75
2022/01/01 05:40:45;;;;;;;28.00;10.68;;;;;;;10.49;100.00;102300.34;5153661;27;20057;-75
2022/01/01 05:43:13;;;;;;;25.63;10.50;;;;;;;10.45;100.00;102294.16;5157829;27;20136;-75
2022/01/01 05:45:43;;;;;;;25.23;10.35;;;;;;;10.45;100.00;102292.41;5154929;27;20058;-74
2022/01/01 05:48:11;;;;;;;31.13;11.00;;;;;;;10.45;100.00;102303.06;5158050;27;20072;-75
2022/01/01 05:50:39;;;;;;;22.85;8.60;;;;;;;10.35;100.00;102301.38;5153440;27;20074;-75
2022/01/01 05:53:09;;;;;;;26.02;9.90;;;;;;;10.40;100.00;102304.91;5155170;27;20118;-75
2022/01/01 05:55:36;;;;;;;19.02;9.13;;;;;;;10.34;100.00;102312.94;5155918;27;20050;-74
2022/01/01 05:58:05;;;;;;;22.85;9.07;;;;;;;10.33;100.00;102316.50;5155450;27;20070;-75
2022/01/01 06:03:44;;;;;;;18.38;8.40;;;;;;;10.35;100.00;102327.16;5154481;27;20674;-73
2022/01/01 06:09:26;;;;;;;24.20;8.65;;;;;;;10.35;100.00;102320.06;5150261;27;20172;-73
2022/01/01 06:11:56;;;;;;;20.90;8.45;;;;;;;10.37;100.00;102331.59;5153916;27;20127;-73
2022/01/01 06:14:35;;;;;;;21.20;8.27;;;;;;;10.35;100.00;102320.06;5139207;27;20176;-73
2022/01/01 06:17:07;;;;;;;21.50;8.88;;;;;;;10.37;100.00;102325.34;5157736;27;20077;-73
2022/01/01 06:19:39;;;;;;;19.83;8.18;;;;;;;10.37;100.00;102326.25;5155592;27;20065;-72
2022/01/01 06:22:16;;;;;;;19.90;7.90;;;;;;;10.43;100.00;102328.84;5138001;27;20050;-75
2022/01/01 06:24:45;;;;;;;19.45;9.25;;;;;;;10.40;100.00;102312.91;5153586;27;20566;-75
2022/01/01 06:27:13;;;;;;;17.55;7.47;;;;;;;10.38;100.00;102327.13;5158300;27;20542;-75
2022/01/01 06:29:46;;;;;;;19.27;8.27;;;;;;;10.38;100.00;102327.13;5154334;27;20050;-74
2022/01/01 06:33:02;;;;;;;19.48;7.55;;;;;;;10.39;100.00;102331.59;5155529;27;20122;-74
2022/01/01 06:35:30;;;;;;;17.52;7.78;;;;;;;10.36;100.00;102324.47;5136831;27;20111;-76
2022/01/01 06:37:58;;;;;;;20.73;7.90;;;;;;;10.42;100.00;102336.88;5157090;27;20053;-77
2022/01/01 06:40:27;;;;;;;18.00;8.55;;;;;;;10.40;100.00;102331.59;5156710;27;20046;-77
2022/01/01 06:42:55;;;;;;;21.95;8.77;;;;;;;10.37;100.00;102334.25;5156879;27;20138;-76
2022/01/01 06:45:23;;;;;;;19.52;9.30;;;;;;;10.35;100.00;102332.50;5154076;27;20145;-76
2022/01/01 06:47:51;;;;;;;16.63;8.07;;;;;;;10.34;100.00;102336.94;5156671;27;20057;-76
2022/01/01 06:50:19;;;;;;;22.92;9.57;;;;;;;10.33;100.00;102331.63;5156226;27;20435;-76
2022/01/01 06:52:47;;;;;;;25.65;10.13;;;;;;;10.36;100.00;102321.81;5155541;27;20046;-76
2022/01/01 06:55:16;;;;;;;22.65;9.98;;;;;;;10.32;100.00;102327.16;5156576;27;20164;-76
2022/01/01 06:57:45;;;;;;;23.38;10.90;;;;;;;10.29;100.00;102331.59;5155372;27;20416;-76
2022/01/01 07:00:15;;;;;;;23.35;9.48;;;;;;;10.31;100.00;102333.38;5157154;27;20102;-76
2022/01/01 07:02:45;;;;;;;26.00;10.35;;;;;;;10.28;100.00;102328.94;5156178;27;20638;-76
2022/01/01 07:05:15;;;;;;;21.13;10.52;;;;;;;10.33;100.00;102326.28;5153297;27;20318;-76
2022/01/01 07:07:43;;;;;;;30.20;12.02;;;;;;;10.26;100.00;102320.94;5152080;27;20520;-76
2022/01/01 07:10:13;;;;;;;25.20;10.50;;;;;;;10.27;100.00;102325.41;5156534;27;20137;-76
2022/01/01 07:12:41;;;;;;;22.60;10.75;;;;;;;10.25;100.00;102323.66;5153910;27;20076;-76
2022/01/01 07:15:11;;;;;;;18.10;9.63;;;;;;;10.23;100.00;102318.34;5154518;27;20047;-76
2022/01/01 07:17:39;;;;;;;21.73;10.10;;;;;;;10.22;100.00;102326.34;5152803;27;20126;-76
2022/01/01 07:20:08;;;;;;;27.15;11.23;;;;;;;10.23;100.00;102330.75;5157258;27;20111;-76
2022/01/01 07:22:40;;;;;;;23.33;10.20;;;;;;;10.21;100.00;102327.22;5151667;27;20128;-77
2022/01/01 07:25:08;;;;;;;26.25;11.93;;;;;;;10.26;100.00;102336.09;5155097;27;20046;-77
2022/01/01 07:27:36;;;;;;;25.75;9.98;;;;;;;10.26;100.00;102344.97;5155118;27;20079;-77
2022/01/01 07:30:06;;;;;;;25.27;11.38;;;;;;;10.28;100.00;102343.19;5153944;27;20053;-77
2022/01/01 07:32:43;;;;;;;22.85;9.57;;;;;;;10.26;100.00;102341.41;5155450;27;20399;-77
2022/01/01 07:35:12;;;;;;;24.40;10.65;;;;;;;10.26;100.00;102344.09;5154792;27;20051;-77
2022/01/01 07:37:39;;;;;;;29.73;11.98;;;;;;;10.27;100.00;102346.75;5153193;27;20467;-76
2022/01/01 07:40:11;;;;;;;28.58;11.20;;;;;;;10.29;100.00;102347.63;5155668;27;20129;-76
2022/01/01 07:42:39;;;;;;;20.85;9.57;;;;;;;10.29;100.00;102344.06;5152208;27;20502;-76
2022/01/01 07:45:08;;;;;;;26.65;11.80;;;;;;;10.32;100.00;102346.75;5156366;27;20137;-76
2022/01/01 07:47:36;;;;;;;26.85;11.88;;;;;;;10.31;100.00;102352.06;5152404;27;20736;-76
2022/01/01 07:50:07;;;;;;;25.52;12.15;;;;;;;10.34;100.00;102350.28;5152754;27;20520;-76
2022/01/01 07:52:35;;;;;;;25.17;11.57;;;;;;;10.35;100.00;102345.84;5154034;27;20058;-76
2022/01/01 07:55:03;;;;;;;28.48;11.93;;;;;;;10.33;100.00;102355.63;5152920;27;20520;-76
2022/01/01 07:57:31;;;;;;;26.58;11.93;;;;;;;10.36;100.00;102348.50;5159639;27;20614;-76
2022/01/01 07:59:58;;;;;;;22.60;10.65;;;;;;;10.40;100.00;102344.00;5159254;27;20054;-76
2022/01/01 08:02:27;;;;;;;28.27;10.70;;;;;;;10.37;100.00;102339.59;5159745;27;20054;-76
2022/01/01 08:04:55;;;;;;;21.65;10.48;;;;;;;10.37;100.00;102328.94;5157109;27;20070;-76
2022/01/01 08:07:24;;;;;;;26.45;11.85;;;;;;;10.34;100.00;102350.28;5158929;27;20045;-76
2022/01/01 08:10:13;;;;;;;26.55;11.27;;;;;;;10.31;100.00;102357.41;5159836;27;20057;-77
2022/01/01 08:12:41;;;;;;;28.60;12.55;;;;;;;10.29;100.00;102347.63;5158411;27;20077;-76
2022/01/01 08:15:10;;;;;;;25.73;11.50;;;;;;;10.29;100.00;102342.28;5157206;27;20153;-76
2022/01/01 08:17:37;;;;;;;29.63;11.05;;;;;;;10.29;100.00;102350.28;5158486;27;20052;-76
2022/01/01 08:20:06;;;;;;;24.25;11.50;;;;;;;10.28;100.00;102353.88;5156993;27;20532;-76
2022/01/01 08:22:35;;;;;;;24.75;11.32;;;;;;;10.28;100.00;102361.88;5160461;27;20069;-76
2022/01/01 08:25:03;;;;;;;24.40;10.68;;;;;;;10.27;100.00;102365.41;5158283;27;20052;-76
2022/01/01 08:27:31;;;;;;;24.60;11.23;;;;;;;10.27;100.00;102364.53;5156409;27;20046;-76
2022/01/01 08:29:59;;;;;;;26.38;11.15;;;;;;;10.25;100.00;102359.22;5160085;27;20047;-76
2022/01/01 08:32:27;;;;;;;23.27;11.90;;;;;;;10.20;100.00;102346.78;5158131;27;20490;-76
2022/01/01 08:34:54;;;;;;;23.65;12.40;;;;;;;10.21;100.00;102354.78;5160592;27;20060;-76
2022/01/01 08:37:22;;;;;;;28.92;12.50;;;;;;;10.16;100.00;102335.25;5158700;27;20049;-77
2022/01/01 08:39:51;;;;;;;25.40;11.65;;;;;;;10.15;100.00;102335.25;5157787;27;20567;-76
2022/01/01 08:42:19;;;;;;;24.27;11.95;;;;;;;10.13;100.00;102331.72;5157387;27;20494;-76
2022/01/01 08:44:48;;;;;;;26.33;12.57;;;;;;;10.16;100.00;102329.03;5156789;27;20046;-76
2022/01/01 08:47:15;;;;;;;27.73;12.55;;;;;;;10.14;100.00;102326.38;5157002;27;20053;-76
2022/01/01 08:49:43;;;;;;;25.35;11.65;;;;;;;10.17;100.00;102329.03;5157927;27;20053;-76
2022/01/01 08:52:11;;;;;;;27.20;13.73;;;;;;;10.15;100.00;102309.50;5155497;27;20045;-76
2022/01/01 08:54:39;;;;;;;28.10;12.32;;;;;;;10.14;100.00;102313.03;5158081;27;20077;-76
2022/01/01 08:57:09;;;;;;;25.70;13.90;;;;;;;10.10;100.00;102312.19;5157471;27;20133;-76
2022/01/01 08:59:37;;;;;;;31.83;13.13;;;;;;;10.14;100.00;102321.03;5158053;27;20054;-77
2022/01/01 09:02:05;;;;;;;27.90;11.55;;;;;;;10.14;100.00;102323.72;5160921;27;20146;-76
2022/01/01 09:04:34;;;;;;;28.90;12.63;;;;;;;10.15;100.00;102312.16;5154922;27;20075;-76
2022/01/01 09:07:01;;;;;;;32.35;14.43;;;;;;;10.09;100.00;102318.41;5158219;27;20082;-76
2022/01/01 09:09:30;;;;;;;34.83;16.10;;;;;;;10.10;100.00;102312.19;5156007;27;20129;-76
2022/01/01 09:11:59;;;;;;;43.72;17.05;;;;;;;10.01;100.00;102314.91;5158192;27;20081;-76
2022/01/01 09:14:29;;;;;;;38.03;18.02;;;;;;;10.03;100.00;102326.47;5156705;27;20046;-76
2022/01/01 09:16:57;;;;;;;43.85;17.85;;;;;;;9.97;100.00;102317.59;5160474;27;20058;-78
2022/01/01 09:19:30;;;;;;;48.92;19.90;;;;;;;9.91;100.00;102313.22;5156347;27;20053;-77
2022/01/01 09:25:05;;;;;;;62.13;22.93;;;;;;;9.76;100.00;102292.84;5156279;27;20094;-73
2022/01/01 09:27:37;;;;;;;57.95;20.75;;;;;;;9.79;100.00;102287.50;5155422;27;20042;-74
2022/01/01 09:30:25;;;;;;;52.65;22.30;;;;;;;9.78;100.00;102287.50;5156921;27;20409;-74
2022/01/01 09:32:57;;;;;;;58.28;23.02;;;;;;;9.72;100.00;102281.31;5157977;27;20142;-75
2022/01/01 09:35:40;;;;;;;51.28;22.25;;;;;;;9.78;100.00;102280.38;5135833;27;20050;-73
2022/01/01 09:38:19;;;;;;;53.88;21.38;;;;;;;9.75;100.00;102279.53;5158838;27;20072;-73
2022/01/01 09:43:46;;;;;;;56.10;21.60;;;;;;;9.84;100.00;102280.34;5157827;27;20075;-74
2022/01/01 09:46:16;;;;;;;57.35;22.50;;;;;;;9.90;100.00;102271.44;5153263;27;20384;-77
2022/01/01 09:48:56;;;;;;;56.78;22.40;;;;;;;9.97;100.00;102273.16;5154924;27;20069;-73
2022/01/01 09:52:01;;;;;;;59.00;22.58;;;;;;;10.00;100.00;102282.94;5135567;27;20047;-73
2022/01/01 09:54:51;;;;;;;65.70;23.80;;;;;;;10.02;100.00;102284.66;5156501;27;20380;-77
2022/01/01 09:57:19;;;;;;;61.85;23.08;;;;;;;10.02;100.00;102279.34;5156290;27;20042;-77
2022/01/01 09:59:47;;;;;;;62.42;23.23;;;;;;;10.08;100.00;102278.44;5157155;27;20129;-77
2022/01/01 10:02:16;;;;;;;71.50;25.80;;;;;;;10.18;100.00;102271.22;5154543;27;20125;-75
2022/01/01 10:07:48;;;;;;;67.13;22.45;;;;;;;10.28;100.00;102272.91;5154495;27;21140;-74
2022/01/01 10:10:25;;;;;;;58.65;24.13;;;;;;;10.34;100.00;102266.69;5153783;27;20050;-76
2022/01/01 10:12:54;;;;;;;66.95;24.73;;;;;;;10.37;100.00;102269.31;5154278;27;20125;-75
2022/01/01 10:15:25;;;;;;;64.60;24.80;;;;;;;10.42;100.00;102275.50;5158408;27;20190;-76
2022/01/01 10:17:54;;;;;;;56.80;21.58;;;;;;;10.46;100.00;102277.25;5155335;27;20086;-76
2022/01/01 10:20:23;;;;;;;58.17;23.17;;;;;;;10.48;100.00;102274.59;5156659;27;20258;-76
2022/01/01 10:23:10;;;;;;;63.20;25.45;;;;;;;10.49;100.00;102271.91;5157331;27;20407;-74
2022/01/01 10:28:23;;;;;;;62.65;24.02;;;;;;;10.55;100.00;102266.50;5155388;27;20155;-77
2022/01/01 10:30:53;;;;;;;66.28;24.60;;;;;;;10.58;100.00;102271.81;5157669;27;20057;-74
2022/01/01 10:33:45;;;;;;;53.38;21.70;;;;;;;10.69;100.00;102261.00;5156713;27;20363;-77
2022/01/01 10:36:16;;;;;;;52.10;21.20;;;;;;;10.78;100.00;102266.28;5154729;27;20114;-76
2022/01/01 10:38:54;;;;;;;55.95;22.50;;;;;;;10.83;100.00;102261.78;5157841;27;20038;-76
2022/01/01 10:41:27;;;;;;;50.92;19.85;;;;;;;10.80;100.00;102251.13;5156877;27;20077;-76
2022/01/01 10:44:06;;;;;;;49.25;20.38;;;;;;;10.92;100.00;102255.44;5158205;27;20043;-77
2022/01/01 10:46:40;;;;;;;49.30;21.00;;;;;;;11.06;100.00;102249.94;5153533;27;20064;-77
2022/01/01 10:53:11;;;;;;;48.72;20.73;;;;;;;11.23;100.00;102268.44;5151656;27;20508;-74
2022/01/01 10:55:49;;;;;;;47.30;20.15;;;;;;;11.23;100.00;102262.22;5137926;27;20608;-75
2022/01/01 10:58:19;;;;;;;47.33;18.58;;;;;;;11.23;100.00;102251.53;5154520;27;20077;-76
2022/01/01 11:01:07;;;;;;;42.10;18.67;;;;;;;11.26;100.00;102249.72;5154742;27;20129;-76
2022/01/01 11:03:47;;;;;;;46.00;18.05;;;;;;;11.33;100.00;102255.88;5154893;27;20038;-76
2022/01/01 11:06:18;;;;;;;42.17;17.27;;;;;;;11.42;100.00;102246.84;5155070;27;20046;-76
2022/01/01 11:11:50;;;;;;;34.45;16.20;;;;;;;11.58;100.00;102251.09;5154549;27;20054;-78
2022/01/01 11:14:25;;;;;;;44.33;18.52;;;;;;;11.54;100.00;102239.56;5154450;27;20050;-75
2022/01/01 11:17:17;;;;;;;35.53;16.70;;;;;;;11.57;100.00;102239.50;5152179;27;20603;-74
2022/01/01 11:20:15;;;;;;;34.15;16.15;;;;;;;11.51;100.00;102214.63;5136177;27;20046;-77
2022/01/01 11:22:50;;;;;;;37.40;15.75;;;;;;;11.55;100.00;102222.59;5152590;27;20284;-74
2022/01/01 11:25:27;;;;;;;35.05;15.95;;;;;;;11.51;100.00;102191.47;5153795;27;20497;-76
2022/01/01 11:27:55;;;;;;;39.80;14.43;;;;;;;11.53;100.00;102197.69;5152153;27;20555;-76
2022/01/01 11:30:28;;;;;;;32.03;14.55;;;;;;;11.53;100.00;102196.81;5154162;27;20403;-77
2022/01/01 11:36:28;;;;;;;36.08;15.85;;;;;;;11.56;100.00;102197.63;5153816;27;20442;-74
2022/01/01 11:39:14;;;;;;;29.65;13.77;;;;;;;11.56;100.00;102208.34;5135498;27;20054;-75
2022/01/01 11:41:45;;;;;;;31.02;14.82;;;;;;;11.59;100.00;102212.75;5154217;27;20157;-76
2022/01/01 11:44:28;;;;;;;30.98;14.10;;;;;;;11.55;100.00;102208.34;5155646;27;20065;-75
2022/01/01 11:50:57;;;;;;;28.10;12.65;;;;;;;11.62;100.00;102214.50;5150793;27;20057;-74
2022/01/01 11:53:35;;;;;;;32.00;14.73;;;;;;;11.65;100.00;102207.31;5153418;27;20069;-75
2022/01/01 11:59:24;;;;;;;24.63;11.13;;;;;;;11.73;100.00;102208.09;5158486;27;20278;-73
2022/01/01 12:02:52;;;;;;;25.85;11.43;;;;;;;11.78;100.00;102199.97;5138467;27;20167;-76
2022/01/01 12:09:00;;;;;;;23.42;11.35;;;;;;;11.83;100.00;102187.41;5156135;27;20050;-76
2022/01/01 12:12:01;;;;;;;20.63;10.25;;;;;;;11.83;100.00;102189.22;5152251;27;20057;-74
2022/01/01 12:14:54;;;;;;;25.95;10.63;;;;;;;11.85;100.00;102185.63;5155451;27;20038;-73
2022/01/01 12:18:18;;;;;;;20.23;10.18;;;;;;;11.84;100.00;102181.16;5155365;27;20061;-73
2022/01/01 12:21:17;;;;;;;25.27;10.60;;;;;;;11.87;100.00;102174.91;5155043;27;20145;-73
2022/01/01 12:24:11;;;;;;;19.35;9.82;;;;;;;11.87;100.00;102166.88;5155617;27;20053;-76
2022/01/01 12:30:12;;;;;;;20.88;9.70;;;;;;;11.92;100.00;102149.00;5133545;27;20046;-73
2022/01/01 12:36:18;;;;;;;21.00;8.48;;;;;;;11.96;100.00;102167.63;5152733;27;20402;-73
2022/01/01 12:39:11;;;;;;;18.75;9.48;;;;;;;12.04;100.00;102158.59;5134581;27;20046;-73
2022/01/01 12:42:27;;;;;;;18.67;8.73;;;;;;;11.99;100.00;102141.75;5154541;27;20769;-73
2022/01/01 12:45:44;;;;;;;16.15;7.50;;;;;;;11.99;100.00;102164.03;5158091;27;20655;-75
2022/01/01 12:51:36;;;;;;;17.75;8.13;;;;;;;12.01;100.00;102151.50;5156864;27;20061;-73
2022/01/01 12:57:32;;;;;;;14.43;7.55;;;;;;;12.04;100.00;102138.06;5161171;27;20461;-74
2022/01/01 13:03:25;;;;;;;13.65;7.03;;;;;;;11.98;100.00;102138.16;5155613;27;20362;-74
2022/01/01 13:11:56;;;;;;;14.77;7.20;;;;;;;12.07;100.00;102147.81;5156977;27;20500;-73
2022/01/01 13:14:43;;;;;;;12.52;5.88;;;;;;;12.05;100.00;102137.16;5139899;27;20115;-73
2022/01/01 13:17:26;;;;;;;13.23;6.28;;;;;;;12.06;100.00;102138.06;5157803;27;20115;-73
2022/01/01 13:20:45;;;;;;;14.60;6.57;;;;;;;12.11;100.00;102131.69;5157172;27;20132;-73
2022/01/01 13:23:58;;;;;;;13.48;6.88;;;;;;;12.14;100.00;102123.63;5159584;27;20046;-73